Saturday, August 29, 2015, 12:51 PM EDT

KTHV, York Airport

Location: Spring Grove, PA, United States Lat: 39.917
Local Time: 12:51 PM EDT (16:51 GMT) Lon: -76.883
Time Zone: US/Eastern Elev: 478 ft

Show me the last for .
Show Decoded

2015-08-29 11:53 METAR KTHV 291553Z AUTO 23006KT 10SM FEW070 26/18 A3020 RMK AO2 SLP226 T02560178
                 =
2015-08-29 10:53 METAR KTHV 291453Z AUTO 00000KT 10SM SCT070 25/17 A3021 RMK AO2 SLP230 T02500172
                 54000 =
2015-08-29 09:53 METAR KTHV 291353Z AUTO 00000KT 10SM FEW070 23/17 A3021 RMK AO2 SLP231 T02280167
                 =
2015-08-29 08:53 METAR KTHV 291253Z AUTO 00000KT 7SM CLR 19/16 A3021 RMK AO2 SLP232 T01940161 =
2015-08-29 07:53 METAR KTHV 291153Z AUTO 00000KT 4SM BR CLR 16/14 A3021 RMK AO2 SLP231 T01560144
                 10156 20122 53008 =
2015-08-29 06:53 METAR KTHV 291053Z AUTO 00000KT 4SM BR CLR 13/12 A3020 RMK AO2 SLP227 T01280117
                 =
2015-08-29 05:53 METAR KTHV 290953Z AUTO 00000KT 3SM BR CLR 12/12 A3019 RMK AO2 SLP224 T01220117
                 =
2015-08-29 04:53 METAR KTHV 290853Z AUTO 00000KT 7SM CLR 13/12 A3019 RMK AO2 SLP223 T01280117
                 56007 =
2015-08-29 03:53 METAR KTHV 290753Z AUTO 00000KT 5SM BR CLR 13/12 A3020 RMK AO2 SLP226 T01280122
                 =
2015-08-29 02:53 METAR KTHV 290653Z AUTO 00000KT 7SM CLR 13/12 A3020 RMK AO2 SLP226 T01280122 =
2015-08-29 01:53 METAR KTHV 290553Z AUTO 00000KT 5SM BR CLR 13/13 A3021 RMK AO2 SLP230 T01330128
                 10189 20133 58000 =
2015-08-29 00:53 METAR KTHV 290453Z AUTO 00000KT 8SM CLR 14/13 A3022 RMK AO2 SLP231 T01440133
                 402670106 =
2015-08-28 23:53 METAR KTHV 290353Z AUTO 00000KT 10SM CLR 15/13 A3021 RMK AO2 SLP230 T01500133 =
2015-08-28 22:53 METAR KTHV 290253Z AUTO 00000KT 10SM CLR 16/14 A3021 RMK AO2 SLP230 T01610144
                 51017 =
2015-08-28 20:53 METAR KTHV 290053Z AUTO 00000KT 10SM CLR 17/15 A3019 RMK AO2 SLP222 T01670150 =
2015-08-28 19:53 METAR KTHV 282353Z AUTO 00000KT 10SM CLR 19/17 A3016 RMK AO2 SLP213 T01890167
                 10267 20189 53002 =
2015-08-28 18:53 METAR KTHV 282253Z AUTO 00000KT 10SM CLR 25/15 A3014 RMK AO2 SLP206 T02500150 =
2015-08-28 17:53 METAR KTHV 282153Z AUTO 00000KT 10SM CLR 26/14 A3015 RMK AO2 SLP210 T02560139 =
2015-08-28 16:53 METAR KTHV 282053Z AUTO 00000KT 10SM CLR 26/13 A3016 RMK AO2 SLP212 T02610133
                 56014 =
2015-08-28 15:53 METAR KTHV 281953Z AUTO VRB03KT 10SM CLR 26/14 A3016 RMK AO2 SLP214 T02610139 =
2015-08-28 14:53 METAR KTHV 281853Z AUTO VRB03KT 10SM CLR 26/14 A3018 RMK AO2 SLP220 T02610139 =
2015-08-28 13:53 METAR KTHV 281753Z AUTO 27006KT 10SM SCT065 24/14 A3020 RMK AO2 SLP226 T02390139
                 10256 20150 58010 =
2015-08-28 12:53 METAR KTHV 281653Z AUTO VRB03KT 10SM BKN043 BKN050 25/14 A3021 RMK AO2 SLP229
                 T02500144 =

Support USWX by starting your Amazon purchase here.